SBOSBO DOH / OTHH
Speedbird OnlineSpeedbird Online DOH / OTHH

Hamad International Airport
11:34 40.5°C

Location Doha, Qatar
Latitude: 25.273056
Longitude: 51.608056
Web Airport Website | Wikipedia
Altitude 4 Meter / 13 Feet
Distance 5,203 KM / 3,233 Miles
from London.
Time Zone UTC +3 hours (Asia/Qatar)
Codes IATA: DOH
ICAO: OTHH
Currency £1 equals QAR 4.12
Runways
RunwayLength (m)Surface
16L4850Asphalt
16R4250Asphalt
34L4250Asphalt
34R4850Asphalt
Radio
TypeDescriptionFrequency
ATIS128.85
D-ATIS126.85
DOHA APP RADAR121.1
HAMAD TERM INFO126.85
HAMAD Tower118.525
Live ATC
METAR OTHH 060800Z AUTO 32010KT CAVOK 40/08 Q1007 NOSIG
TAF TAF OTHH 060506Z 0606/0712 31015KT CAVOK TEMPO 0609/0614 02010KT 8000 NSC TEMPO 0621/0702 VRB02KT 5000 HZ PROB30 TEMPO 0621/0703 2500 BR
Weather As Of 06 Oct 2022 11:34
Description Clear sky
Wind 22 km/h from North (340°)
Cloud Cover 0%
Precipitation Rain: none, Snow: none
Sunrise 05:27
Sunset 17:15
Lounges Al Safwa First Lounge , Main Terminal
Oryx Lounge , Main Terminal
Qatar Airways Silver Lounge -South, Main Terminal
Qatar Airways First Class Lounge TEMPORARILY CLOSED, Main Terminal
Al Mourjan Business Lounge, Main Terminal
Rotations During the last 90 days there were
86 flights from LHR
86 flights to LHR


© 2017-2022 Speedbird Online